createdAt,value
2022-10-25T00:15:02.869Z,1006.4
2022-10-25T00:30:02.309Z,1006.5
2022-10-25T00:45:02.760Z,1006.5
2022-10-25T01:00:03.179Z,1006.5
2022-10-25T01:15:02.675Z,1006.6
2022-10-25T01:30:03.077Z,1006.5
2022-10-25T01:45:02.698Z,1006.7
2022-10-25T02:00:02.953Z,1006.7
2022-10-25T02:15:02.380Z,1006.8
2022-10-25T02:30:02.833Z,1006.8
2022-10-25T02:45:02.256Z,1006.9
2022-10-25T03:00:02.827Z,1007.0
2022-10-25T03:15:02.112Z,1007.0
2022-10-25T03:30:02.702Z,1007.1
2022-10-25T03:45:02.978Z,1007.2
2022-10-25T04:00:02.438Z,1007.3
2022-10-25T04:15:02.846Z,1007.6
2022-10-25T04:30:02.287Z,1007.6
2022-10-25T04:45:02.715Z,1007.7
2022-10-25T05:00:03.193Z,1007.7
2022-10-25T05:15:02.733Z,1007.8
2022-10-25T05:30:03.061Z,1007.8
2022-10-25T05:45:02.652Z,1008.0
2022-10-25T06:00:02.923Z,1008.2
2022-10-25T06:15:02.383Z,1008.3
2022-10-25T06:30:02.818Z,1008.4
2022-10-25T06:45:03.252Z,1008.7
2022-10-25T07:00:02.774Z,1008.9
2022-10-25T07:15:03.149Z,1009.1
2022-10-25T07:30:02.765Z,1009.4
2022-10-25T07:45:03.011Z,1009.6
2022-10-25T08:00:02.453Z,1009.7
2022-10-25T08:15:02.907Z,1009.8
2022-10-25T08:30:02.303Z,1009.7
2022-10-25T08:45:02.777Z,1009.9
2022-10-25T09:00:03.195Z,1010.2
2022-10-25T09:15:02.793Z,1010.2
2022-10-25T09:30:05.146Z,1010.3
2022-10-25T09:45:03.540Z,1010.4
2022-10-25T10:00:02.967Z,1010.6
2022-10-25T10:15:02.598Z,1010.7
2022-10-25T10:30:02.817Z,1010.9
2022-10-25T10:45:03.272Z,1011.0
2022-10-25T11:00:02.805Z,1011.2
2022-10-25T11:15:03.146Z,1011.1
2022-10-25T11:30:02.794Z,1011.2
2022-10-25T11:45:03.020Z,1011.2
2022-10-25T12:00:02.425Z,1011.4
2022-10-25T12:15:02.883Z,1011.5
2022-10-25T12:30:02.297Z,1011.5
2022-10-25T12:45:02.830Z,1011.6
2022-10-25T13:00:02.190Z,1011.7
2022-10-25T13:15:02.816Z,1011.5
2022-10-25T13:30:02.148Z,1011.6
2022-10-25T13:45:02.463Z,1011.5
2022-10-25T14:00:03.152Z,1011.2
2022-10-25T14:15:02.371Z,1011.5
2022-10-25T14:30:02.946Z,1011.4
2022-10-25T14:45:02.244Z,1011.2
2022-10-25T15:00:02.863Z,1011.4
2022-10-25T15:15:02.118Z,1011.5
2022-10-25T15:30:02.568Z,1011.4
2022-10-25T15:45:03.004Z,1011.4
2022-10-25T16:00:02.407Z,1011.5
2022-10-25T16:15:02.874Z,1011.4
2022-10-25T16:30:02.297Z,1011.5
2022-10-25T16:45:02.862Z,1011.5
2022-10-25T17:00:02.164Z,1011.7
2022-10-25T17:15:02.607Z,1011.6
2022-10-25T17:30:03.055Z,1011.6
2022-10-25T17:45:02.466Z,1011.6
2022-10-25T18:00:02.933Z,1011.7
2022-10-25T18:15:02.376Z,1011.6
2022-10-25T18:30:02.898Z,1011.7
2022-10-25T18:45:02.230Z,1011.8
2022-10-25T19:00:02.889Z,1011.8
2022-10-25T19:15:02.119Z,1011.6
2022-10-25T19:30:02.541Z,1011.6
2022-10-25T19:45:03.018Z,1011.6
2022-10-25T20:00:02.423Z,1011.7
2022-10-25T20:15:02.972Z,1011.5
2022-10-25T20:30:02.320Z,1011.6
2022-10-25T21:00:02.208Z,1011.6
2022-10-25T21:15:02.695Z,1011.5
2022-10-25T21:30:03.090Z,1011.5
2022-10-25T21:45:02.508Z,1011.4
2022-10-25T22:00:02.968Z,1011.2
2022-10-25T22:15:02.387Z,1011.4
2022-10-25T22:30:02.947Z,1011.4
2022-10-25T22:45:02.250Z,1011.4
2022-10-25T23:00:02.872Z,1011.3
2022-10-25T23:15:02.128Z,1011.3
2022-10-25T23:30:02.575Z,1011.4
2022-10-25T23:45:03.048Z,1011.2
